createdAt,value
2019-02-04T00:01:46.908Z,64.13
2019-02-04T00:04:15.505Z,62.58
2019-02-04T00:06:44.078Z,65.13
2019-02-04T00:09:12.690Z,61.47
2019-02-04T00:11:41.248Z,58.19
2019-02-04T00:14:10.236Z,59.07
2019-02-04T00:16:40.864Z,58.34
2019-02-04T00:19:09.179Z,60.46
2019-02-04T00:21:37.742Z,59.44
2019-02-04T00:24:06.374Z,59.84
2019-02-04T00:26:34.935Z,60.61
2019-02-04T00:29:03.773Z,61.98
2019-02-04T00:31:32.429Z,60.45
2019-02-04T00:34:00.992Z,58.98
2019-02-04T00:36:29.675Z,63.13
2019-02-04T00:38:58.243Z,62.36
2019-02-04T00:41:27.146Z,62.69
2019-02-04T00:43:55.983Z,60.57
2019-02-04T00:46:24.776Z,61.12
2019-02-04T00:48:53.351Z,61.41
2019-02-04T00:51:22.153Z,59.21
2019-02-04T00:53:50.718Z,59.37
2019-02-04T00:56:19.313Z,60.25
2019-02-04T00:58:47.876Z,60.06
2019-02-04T01:01:16.456Z,59.15
2019-02-04T01:03:45.267Z,57.77
2019-02-04T01:06:13.836Z,57.98
2019-02-04T01:08:42.407Z,57.58
2019-02-04T01:11:10.981Z,58.69
2019-02-04T01:13:39.541Z,60.56
2019-02-04T01:16:08.682Z,58.50
2019-02-04T01:18:37.339Z,58.16
2019-02-04T01:21:05.998Z,59.69
2019-02-04T01:23:34.580Z,58.84
2019-02-04T01:26:03.220Z,60.28
2019-02-04T01:28:34.889Z,62.87
2019-02-04T01:31:03.454Z,64.62
2019-02-04T01:33:32.012Z,62.29
2019-02-04T01:36:00.814Z,61.21
2019-02-04T01:38:29.380Z,61.33
2019-02-04T01:40:57.948Z,62.32
2019-02-04T01:43:26.690Z,63.20
2019-02-04T01:45:55.566Z,65.22
2019-02-04T01:48:24.811Z,62.42
2019-02-04T01:50:53.371Z,61.89
2019-02-04T01:53:21.936Z,62.99
2019-02-04T01:55:50.737Z,65.10
2019-02-04T01:58:20.798Z,64.77
2019-02-04T02:00:49.430Z,63.74
2019-02-04T02:03:17.996Z,60.77
2019-02-04T02:05:46.812Z,61.49
2019-02-04T02:08:15.391Z,62.01
2019-02-04T02:10:44.023Z,60.00
2019-02-04T02:13:12.871Z,62.61
2019-02-04T02:15:41.444Z,60.71
2019-02-04T02:18:10.043Z,62.31
2019-02-04T02:20:38.603Z,63.70
2019-02-04T02:23:07.163Z,62.31
2019-02-04T02:25:35.729Z,63.44
2019-02-04T02:28:04.973Z,63.42
2019-02-04T02:30:33.871Z,64.95
2019-02-04T02:33:02.462Z,61.69
2019-02-04T02:35:31.083Z,63.64
2019-02-04T02:37:59.739Z,67.21
2019-02-04T02:40:30.679Z,65.70
2019-02-04T02:42:59.712Z,65.38
2019-02-04T02:45:28.587Z,63.87
2019-02-04T02:47:57.219Z,65.56
2019-02-04T02:50:25.783Z,66.50
2019-02-04T02:52:54.735Z,68.51
2019-02-04T02:55:23.403Z,67.34
2019-02-04T02:57:52.288Z,67.63
2019-02-04T03:00:22.798Z,66.72
2019-02-04T03:02:51.433Z,64.63
2019-02-04T03:05:20.074Z,66.03
2019-02-04T03:07:48.651Z,64.23
2019-02-04T03:10:19.866Z,64.98
2019-02-04T03:12:48.704Z,64.15
2019-02-04T03:15:17.363Z,63.92
2019-02-04T03:17:51.958Z,66.53
2019-02-04T03:20:16.831Z,67.53
2019-02-04T03:22:45.629Z,67.33
2019-02-04T03:25:14.286Z,65.05
2019-02-04T03:27:43.369Z,65.57
2019-02-04T03:30:16.078Z,66.15
2019-02-04T03:32:44.652Z,65.19
2019-02-04T03:35:13.393Z,66.65
2019-02-04T03:37:42.040Z,65.42
2019-02-04T03:40:12.398Z,64.79
2019-02-04T03:42:40.965Z,64.43
2019-02-04T03:45:10.273Z,63.21
2019-02-04T03:47:39.096Z,64.97
2019-02-04T03:50:08.962Z,65.72
2019-02-04T03:52:37.611Z,66.68
2019-02-04T03:55:07.745Z,66.25
2019-02-04T03:57:36.468Z,65.47
2019-02-04T04:00:08.476Z,66.38
2019-02-04T04:02:37.066Z,65.56
2019-02-04T04:05:06.340Z,67.85
2019-02-04T04:07:34.926Z,66.24
2019-02-04T04:10:04.022Z,64.46
2019-02-04T04:12:32.838Z,64.33
2019-02-04T04:15:01.415Z,63.65
2019-02-04T04:17:29.981Z,63.35
2019-02-04T04:19:58.579Z,63.49
2019-02-04T04:22:27.128Z,65.14
2019-02-04T04:24:56.079Z,63.34
2019-02-04T04:27:24.646Z,64.17
2019-02-04T04:29:53.462Z,63.21
2019-02-04T04:32:22.042Z,65.20
2019-02-04T04:34:50.607Z,64.31
2019-02-04T04:37:19.184Z,64.18
2019-02-04T04:39:48.029Z,63.72
2019-02-04T04:42:16.625Z,63.07
2019-02-04T04:44:45.184Z,64.48
2019-02-04T04:47:13.842Z,62.17
2019-02-04T04:49:43.089Z,63.90
2019-02-04T04:52:11.696Z,63.26
2019-02-04T04:54:40.545Z,64.06
2019-02-04T04:57:09.109Z,63.74
2019-02-04T04:59:37.682Z,63.18
2019-02-04T05:02:06.330Z,62.94
2019-02-04T05:04:34.913Z,62.99
2019-02-04T05:07:03.497Z,64.60
2019-02-04T05:09:32.329Z,62.62
2019-02-04T05:12:00.966Z,65.26
2019-02-04T05:14:29.940Z,65.03
2019-02-04T05:16:58.503Z,63.07
2019-02-04T05:19:27.144Z,63.76
2019-02-04T05:21:55.758Z,63.76
2019-02-04T05:24:24.591Z,62.50
2019-02-04T05:26:53.147Z,65.13
2019-02-04T05:29:21.743Z,64.03
2019-02-04T05:31:50.507Z,65.32
2019-02-04T05:34:19.077Z,63.52
2019-02-04T05:36:47.696Z,65.27
2019-02-04T05:39:16.388Z,63.49
2019-02-04T05:41:45.067Z,61.64
2019-02-04T05:44:13.636Z,62.49
2019-02-04T05:46:42.223Z,61.26
2019-02-04T05:49:10.803Z,62.00
2019-02-04T05:51:39.384Z,62.20
2019-02-04T05:54:07.972Z,61.10
2019-02-04T05:56:36.552Z,61.96
2019-02-04T05:59:05.285Z,61.50
2019-02-04T06:01:34.390Z,60.75
2019-02-04T06:04:03.459Z,58.69
2019-02-04T06:06:32.360Z,59.04
2019-02-04T06:09:01.341Z,60.21
2019-02-04T06:11:30.012Z,61.57
2019-02-04T06:13:58.763Z,61.30
2019-02-04T06:16:27.436Z,59.60
2019-02-04T06:19:01.072Z,59.41
2019-02-04T06:21:26.529Z,59.38
2019-02-04T06:23:55.225Z,59.04
2019-02-04T06:26:24.148Z,61.06
2019-02-04T06:28:52.787Z,61.99
2019-02-04T06:31:21.642Z,61.58
2019-02-04T06:33:50.312Z,62.46
2019-02-04T06:36:19.361Z,60.89
2019-02-04T06:38:47.990Z,61.64
2019-02-04T06:41:16.599Z,60.35
2019-02-04T06:43:45.538Z,59.52
2019-02-04T06:46:14.131Z,60.54
2019-02-04T06:48:42.751Z,61.07
2019-02-04T06:51:11.673Z,58.42
2019-02-04T06:53:40.312Z,61.30
2019-02-04T06:56:09.315Z,61.11
2019-02-04T06:58:38.160Z,58.48
2019-02-04T07:01:06.913Z,57.67
2019-02-04T07:03:35.812Z,59.81
2019-02-04T07:06:04.447Z,58.62
2019-02-04T07:08:33.281Z,58.66
2019-02-04T07:11:02.390Z,61.40
2019-02-04T07:13:30.985Z,61.30
2019-02-04T07:15:59.652Z,59.30
2019-02-04T07:18:28.539Z,59.46
2019-02-04T07:20:57.208Z,60.48
2019-02-04T07:23:25.981Z,61.14
2019-02-04T07:25:54.737Z,58.93
2019-02-04T07:28:23.416Z,61.29
2019-02-04T07:30:52.136Z,60.14
2019-02-04T07:33:20.830Z,62.15
2019-02-04T07:35:49.557Z,63.04
2019-02-04T07:38:18.279Z,61.04
2019-02-04T07:40:47.038Z,59.99
2019-02-04T07:43:16.121Z,60.02
2019-02-04T07:45:44.720Z,59.45
2019-02-04T07:48:13.427Z,59.05
2019-02-04T07:50:42.119Z,61.00
2019-02-04T07:53:11.040Z,58.98
2019-02-04T07:55:39.707Z,58.24
2019-02-04T07:58:08.732Z,60.41
2019-02-04T08:00:37.454Z,60.73
2019-02-04T08:03:06.126Z,60.29
2019-02-04T08:05:34.823Z,60.53
2019-02-04T08:08:03.761Z,60.37
2019-02-04T08:10:32.726Z,59.88
2019-02-04T08:13:02.180Z,59.17
2019-02-04T08:15:33.370Z,59.98
2019-02-04T08:18:02.055Z,58.38
2019-02-04T08:20:30.736Z,59.58
2019-02-04T08:22:59.463Z,57.62
2019-02-04T08:25:28.275Z,58.18
2019-02-04T08:27:57.220Z,59.51
2019-02-04T08:30:28.009Z,58.75
2019-02-04T08:32:56.736Z,58.39
2019-02-04T08:35:25.746Z,57.51
2019-02-04T08:37:54.403Z,56.28
2019-02-04T08:40:23.147Z,56.77
2019-02-04T08:42:52.161Z,57.30
2019-02-04T08:45:20.818Z,56.35
2019-02-04T08:47:49.673Z,56.63
2019-02-04T08:50:19.178Z,55.35
2019-02-04T08:52:48.236Z,55.42
2019-02-04T08:55:17.006Z,54.75
2019-02-04T08:57:45.865Z,55.01
2019-02-04T09:00:16.864Z,54.68
2019-02-04T09:02:45.577Z,54.28
2019-02-04T09:05:14.620Z,53.12
2019-02-04T09:07:43.490Z,52.65
2019-02-04T09:10:18.277Z,51.06
2019-02-04T09:12:46.899Z,50.64
2019-02-04T09:15:16.437Z,49.35
2019-02-04T09:17:45.006Z,48.88
2019-02-04T09:20:15.122Z,49.97
2019-02-04T09:22:43.838Z,49.16
2019-02-04T09:25:13.243Z,49.88
2019-02-04T09:27:44.853Z,51.11
2019-02-04T09:30:23.717Z,50.27
2019-02-04T09:32:52.800Z,50.73
2019-02-04T09:35:21.797Z,50.64
2019-02-04T09:37:50.654Z,50.03
2019-02-04T09:40:44.852Z,48.27
2019-02-04T09:43:13.695Z,47.61
2019-02-04T09:45:43.749Z,47.86
2019-02-04T09:48:15.893Z,47.52
2019-02-04T09:50:44.816Z,47.10
2019-02-04T09:53:13.626Z,45.79
2019-02-04T09:55:42.269Z,44.94
2019-02-04T09:58:10.911Z,44.83
2019-02-04T10:00:39.541Z,45.20
2019-02-04T10:03:08.309Z,46.13
2019-02-04T10:05:37.250Z,45.68
2019-02-04T10:08:06.440Z,45.83
2019-02-04T10:10:35.138Z,44.67
2019-02-04T10:13:03.901Z,44.90
2019-02-04T10:15:34.607Z,46.03
2019-02-04T10:18:03.244Z,44.97
2019-02-04T10:20:34.537Z,44.87
2019-02-04T10:23:02.082Z,45.72
2019-02-04T10:25:32.757Z,44.82
2019-02-04T10:28:01.427Z,44.85
2019-02-04T10:30:30.146Z,44.92
2019-02-04T10:32:58.882Z,45.57
2019-02-04T10:35:27.649Z,45.46
2019-02-04T10:37:56.548Z,46.56
2019-02-04T10:40:25.853Z,45.24
2019-02-04T10:42:54.667Z,46.42
2019-02-04T10:45:23.363Z,46.96
2019-02-04T10:47:52.096Z,46.71
2019-02-04T10:50:46.103Z,47.23
2019-02-04T10:53:10.655Z,48.80
2019-02-04T10:55:39.499Z,49.27
2019-02-04T10:58:09.693Z,49.17
2019-02-04T11:00:39.402Z,50.31
2019-02-04T11:03:08.317Z,50.26
2019-02-04T11:05:37.544Z,50.07
2019-02-04T11:08:07.042Z,49.82
2019-02-04T11:10:36.736Z,49.69
2019-02-04T11:13:08.787Z,50.00
2019-02-04T11:15:37.624Z,50.05
2019-02-04T11:18:06.662Z,49.76
2019-02-04T11:20:35.773Z,49.00
2019-02-04T11:23:05.181Z,48.65
2019-02-04T11:25:33.762Z,49.05
2019-02-04T11:28:02.331Z,47.22
2019-02-04T11:30:33.253Z,47.89
2019-02-04T11:33:01.998Z,48.00
2019-02-04T11:35:30.805Z,48.53
2019-02-04T11:37:59.443Z,49.16
2019-02-04T11:40:33.566Z,49.58
2019-02-04T11:43:02.339Z,48.41
2019-02-04T11:45:31.400Z,47.77
2019-02-04T11:48:00.520Z,47.49
2019-02-04T11:50:29.307Z,46.34
2019-02-04T11:52:57.832Z,46.38
2019-02-04T11:55:26.781Z,46.69
2019-02-04T11:57:55.738Z,48.83
2019-02-04T12:00:25.982Z,48.11
2019-02-04T12:02:56.946Z,47.47
2019-02-04T12:05:25.532Z,48.46
2019-02-04T12:07:54.241Z,50.07
2019-02-04T12:10:29.154Z,49.52
2019-02-04T12:12:58.607Z,49.33
2019-02-04T12:15:27.270Z,48.31
2019-02-04T12:17:55.916Z,48.52
2019-02-04T12:20:24.487Z,47.57
2019-02-04T12:22:53.048Z,48.53
2019-02-04T12:25:23.203Z,46.65
2019-02-04T12:27:52.406Z,47.71
2019-02-04T12:30:23.579Z,47.44
2019-02-04T12:32:52.149Z,46.48
2019-02-04T12:35:20.908Z,46.33
2019-02-04T12:37:49.789Z,45.14
2019-02-04T12:40:18.701Z,44.25
2019-02-04T12:42:47.939Z,43.71
2019-02-04T12:45:25.887Z,42.55
2019-02-04T12:47:54.976Z,43.60
2019-02-04T12:50:24.141Z,40.72
2019-02-04T12:52:52.880Z,40.72
2019-02-04T12:55:22.947Z,42.14
2019-02-04T12:57:51.986Z,40.95
2019-02-04T13:00:22.935Z,39.61
2019-02-04T13:02:52.326Z,38.61
2019-02-04T13:05:24.257Z,39.61
2019-02-04T13:07:53.148Z,39.16
2019-02-04T13:10:22.614Z,38.53
2019-02-04T13:12:51.675Z,39.19
2019-02-04T13:15:21.112Z,39.38
2019-02-04T13:17:49.786Z,37.67
2019-02-04T13:20:20.727Z,37.74
2019-02-04T13:22:49.501Z,39.30
2019-02-04T13:25:20.663Z,40.44
2019-02-04T13:27:49.354Z,40.97
2019-02-04T13:30:20.453Z,42.86
2019-02-04T13:32:49.337Z,43.23
2019-02-04T13:35:18.444Z,42.70
2019-02-04T13:37:47.032Z,44.03
2019-02-04T13:40:18.688Z,44.85
2019-02-04T13:42:47.331Z,45.31
2019-02-04T13:45:17.614Z,48.04
2019-02-04T13:47:46.707Z,47.06
2019-02-04T13:50:16.199Z,48.00
2019-02-04T13:55:39.797Z,49.43
2019-02-04T13:58:08.643Z,49.58
2019-02-04T14:00:38.061Z,49.93
2019-02-04T14:03:09.585Z,49.10
2019-02-04T14:05:38.241Z,49.63
2019-02-04T14:08:07.246Z,50.34
2019-02-04T14:10:37.837Z,49.88
2019-02-04T14:13:06.901Z,49.94
2019-02-04T14:15:54.680Z,46.62
2019-02-04T14:18:26.489Z,48.47
2019-02-04T14:20:53.676Z,49.69
2019-02-04T14:23:22.502Z,48.73
2019-02-04T14:25:51.154Z,48.50
2019-02-04T14:28:20.248Z,47.81
2019-02-04T14:30:49.222Z,47.11
2019-02-04T14:33:17.816Z,48.24
2019-02-04T14:35:46.374Z,47.63
2019-02-04T14:38:14.945Z,45.79
2019-02-04T14:40:44.035Z,49.02
2019-02-04T14:43:24.922Z,49.64
2019-02-04T14:46:25.013Z,50.22
2019-02-04T14:49:35.188Z,48.76
2019-02-04T14:52:35.024Z,49.95
2019-02-04T14:55:39.257Z,50.06
2019-02-04T14:58:13.582Z,47.23
2019-02-04T15:01:19.337Z,52.46
2019-02-04T15:04:03.234Z,50.02
2019-02-04T15:07:10.318Z,47.99
2019-02-04T15:10:21.782Z,48.01
2019-02-04T15:13:15.021Z,50.26
2019-02-04T15:16:15.316Z,49.30
2019-02-04T15:19:31.412Z,48.90
2019-02-04T15:22:33.443Z,47.76
2019-02-04T15:25:20.145Z,50.08
2019-02-04T15:28:11.541Z,49.08
2019-02-04T15:31:15.326Z,50.27
2019-02-04T15:34:25.791Z,50.65
2019-02-04T15:37:13.875Z,52.04
2019-02-04T15:40:15.640Z,51.71
2019-02-04T15:43:20.047Z,52.14
2019-02-04T15:46:29.676Z,54.28
2019-02-04T15:49:32.995Z,51.22
2019-02-04T15:52:01.891Z,51.03
2019-02-04T15:54:30.697Z,53.29
2019-02-04T15:56:59.308Z,53.00
2019-02-04T15:59:28.262Z,52.73
2019-02-04T16:01:57.072Z,52.86
2019-02-04T16:04:31.044Z,52.08
2019-02-04T16:06:59.758Z,53.43
2019-02-04T16:09:28.682Z,53.75
2019-02-04T16:11:57.470Z,55.27
2019-02-04T16:14:26.930Z,55.52
2019-02-04T16:16:56.152Z,53.58
2019-02-04T16:19:24.894Z,54.96
2019-02-04T16:21:53.513Z,54.24
2019-02-04T16:24:22.235Z,54.46
2019-02-04T16:26:51.093Z,54.51
2019-02-04T16:29:19.633Z,53.09
2019-02-04T16:31:48.799Z,53.66
2019-02-04T16:34:17.572Z,53.83
2019-02-04T16:36:46.261Z,53.72
2019-02-04T16:39:14.957Z,53.85
2019-02-04T16:41:43.791Z,53.44
2019-02-04T16:44:13.449Z,53.89
2019-02-04T16:46:42.283Z,53.61
2019-02-04T16:49:10.982Z,52.45
2019-02-04T16:51:39.960Z,54.79
2019-02-04T16:54:08.553Z,53.10
2019-02-04T16:56:37.145Z,53.77
2019-02-04T16:59:05.829Z,53.34
2019-02-04T17:01:34.724Z,52.79
2019-02-04T17:04:03.336Z,53.64
2019-02-04T17:06:32.110Z,52.89
2019-02-04T17:09:02.301Z,52.42
2019-02-04T17:11:30.976Z,54.07
2019-02-04T17:13:59.611Z,55.28
2019-02-04T17:16:28.415Z,54.99
2019-02-04T17:18:57.019Z,54.21
2019-02-04T17:21:25.923Z,54.27
2019-02-04T17:23:54.524Z,54.30
2019-02-04T17:26:23.196Z,52.05
2019-02-04T17:28:51.830Z,49.56
2019-02-04T17:31:20.422Z,50.29
2019-02-04T17:33:49.382Z,51.51
2019-02-04T17:36:17.963Z,51.71
2019-02-04T17:38:46.548Z,52.05
2019-02-04T17:41:15.293Z,51.57
2019-02-04T17:43:43.820Z,51.03
2019-02-04T17:46:12.435Z,53.01
2019-02-04T17:48:41.269Z,53.91
2019-02-04T17:51:09.933Z,53.69
2019-02-04T17:53:38.505Z,55.90
2019-02-04T17:56:08.711Z,54.84
2019-02-04T17:58:37.364Z,54.19
2019-02-04T18:01:06.339Z,53.04
2019-02-04T18:03:35.143Z,54.50
2019-02-04T18:06:03.842Z,51.09
2019-02-04T18:08:32.431Z,53.28
2019-02-04T18:11:01.002Z,52.08
2019-02-04T18:13:29.853Z,53.60
2019-02-04T18:15:58.456Z,51.99
2019-02-04T18:18:27.122Z,52.11
2019-02-04T18:20:55.779Z,52.56
2019-02-04T18:23:24.422Z,54.08
2019-02-04T18:25:53.186Z,54.64
2019-02-04T18:28:21.750Z,55.00
2019-02-04T18:30:50.326Z,55.70
2019-02-04T18:33:18.893Z,55.10
2019-02-04T18:35:47.706Z,53.61
2019-02-04T18:38:16.528Z,53.78
2019-02-04T18:40:45.465Z,53.99
2019-02-04T18:43:14.050Z,52.79
2019-02-04T18:45:42.692Z,54.82
2019-02-04T18:48:11.366Z,55.37
2019-02-04T18:50:40.367Z,55.30
2019-02-04T18:53:09.047Z,55.80
2019-02-04T18:55:37.735Z,55.38
2019-02-04T18:58:06.492Z,56.17
2019-02-04T19:00:36.215Z,55.91
2019-02-04T19:03:16.802Z,55.48
2019-02-04T19:05:36.552Z,56.55
2019-02-04T19:08:06.329Z,56.76
2019-02-04T19:10:35.254Z,56.02
2019-02-04T19:13:03.986Z,56.61
2019-02-04T19:15:32.566Z,57.76
2019-02-04T19:18:04.506Z,56.69
2019-02-04T19:20:33.070Z,55.73
2019-02-04T19:23:01.661Z,56.56
2019-02-04T19:25:30.230Z,57.95
2019-02-04T19:27:58.819Z,57.37
2019-02-04T19:30:33.310Z,58.81
2019-02-04T19:33:02.101Z,59.47
2019-02-04T19:35:30.663Z,59.05
2019-02-04T19:37:59.255Z,59.64
2019-02-04T19:40:27.953Z,58.95
2019-02-04T19:42:56.589Z,59.64
2019-02-04T19:45:25.351Z,58.91
2019-02-04T19:47:54.274Z,58.31
2019-02-04T19:50:25.360Z,58.27
2019-02-04T19:52:54.033Z,56.13
2019-02-04T19:55:22.890Z,55.33
2019-02-04T19:57:51.542Z,56.97
2019-02-04T20:00:20.759Z,56.82
2019-02-04T20:02:49.895Z,55.86
2019-02-04T20:05:20.019Z,57.24
2019-02-04T20:07:49.117Z,57.30
2019-02-04T20:10:19.100Z,57.81
2019-02-04T20:12:48.085Z,59.20
2019-02-04T20:15:19.676Z,59.09
2019-02-04T20:17:48.478Z,57.47
2019-02-04T20:20:17.208Z,58.69
2019-02-04T20:22:46.034Z,59.31
2019-02-04T20:25:17.388Z,59.62
2019-02-04T20:27:46.046Z,60.56
2019-02-04T20:30:20.106Z,60.52
2019-02-04T20:32:48.909Z,59.96
2019-02-04T20:35:17.547Z,60.59
2019-02-04T20:37:46.358Z,60.16
2019-02-04T20:40:17.234Z,59.56
2019-02-04T20:42:45.865Z,59.23
2019-02-04T20:45:14.813Z,58.17
2019-02-04T20:47:43.586Z,58.27
2019-02-04T20:50:15.592Z,58.43
2019-02-04T20:52:44.177Z,58.49
2019-02-04T20:55:13.093Z,57.63
2019-02-04T20:57:41.690Z,56.65
2019-02-04T21:00:13.618Z,56.13
2019-02-04T21:02:42.214Z,55.89
2019-02-04T21:05:10.955Z,55.26
2019-02-04T21:07:39.612Z,55.48
2019-02-04T21:10:10.747Z,56.49
2019-02-04T21:12:39.350Z,56.30
2019-02-04T21:15:08.934Z,56.10
2019-02-04T21:17:37.655Z,55.22
2019-02-04T21:20:08.132Z,57.05
2019-02-04T21:22:36.755Z,55.89
2019-02-04T21:25:06.330Z,55.58
2019-02-04T21:27:35.358Z,57.12
2019-02-04T21:30:05.214Z,56.67
2019-02-04T21:32:33.831Z,55.80
2019-02-04T21:35:02.407Z,55.15
2019-02-04T21:37:31.220Z,55.85
2019-02-04T21:39:59.891Z,56.93
2019-02-04T21:42:28.505Z,55.15
2019-02-04T21:44:57.101Z,55.09
2019-02-04T21:47:25.835Z,55.71
2019-02-04T21:49:54.448Z,56.31
2019-02-04T21:52:23.033Z,54.66
2019-02-04T21:54:51.615Z,56.69
2019-02-04T21:57:20.241Z,57.28
2019-02-04T21:59:49.293Z,57.04
2019-02-04T22:02:18.112Z,55.46
2019-02-04T22:04:46.678Z,55.61
2019-02-04T22:07:15.265Z,55.61
2019-02-04T22:09:43.838Z,56.13
2019-02-04T22:12:12.429Z,55.86
2019-02-04T22:14:40.999Z,54.95
2019-02-04T22:17:09.908Z,54.67
2019-02-04T22:19:38.466Z,54.52
2019-02-04T22:22:07.114Z,56.24
2019-02-04T22:24:35.686Z,56.43
2019-02-04T22:27:04.248Z,56.06
2019-02-04T22:29:33.237Z,55.97
2019-02-04T22:32:01.833Z,55.92
2019-02-04T22:34:30.579Z,56.04
2019-02-04T22:36:59.735Z,54.57
2019-02-04T22:39:28.399Z,55.01
2019-02-04T22:41:57.025Z,54.26
2019-02-04T22:44:25.617Z,56.64
2019-02-04T22:46:54.225Z,55.95
2019-02-04T22:49:23.037Z,56.56
2019-02-04T22:51:51.739Z,57.99
2019-02-04T22:54:20.304Z,58.60
2019-02-04T22:56:48.872Z,58.15
2019-02-04T22:59:17.695Z,57.76
2019-02-04T23:01:52.261Z,58.49
2019-02-04T23:04:20.939Z,58.52
2019-02-04T23:06:49.598Z,57.13
2019-02-04T23:09:18.298Z,58.70
2019-02-04T23:11:46.938Z,59.74
2019-02-04T23:14:15.606Z,59.84
2019-02-04T23:16:44.168Z,59.40
2019-02-04T23:19:13.170Z,59.67
2019-02-04T23:21:41.749Z,58.42
2019-02-04T23:24:10.430Z,60.82
2019-02-04T23:26:39.013Z,59.86
2019-02-04T23:29:07.640Z,60.50
2019-02-04T23:31:36.515Z,60.48
2019-02-04T23:34:05.347Z,59.23
2019-02-04T23:36:34.083Z,59.92
2019-02-04T23:39:02.931Z,60.69
2019-02-04T23:41:31.503Z,59.09
2019-02-04T23:44:00.073Z,57.64
2019-02-04T23:46:28.638Z,58.35
2019-02-04T23:48:57.215Z,58.80
2019-02-04T23:51:26.138Z,59.74
2019-02-04T23:53:54.770Z,58.52
2019-02-04T23:56:23.380Z,59.67
2019-02-04T23:58:51.935Z,60.17
